createdAt,value
2023-02-03T00:01:13.102Z,3.27
2023-02-03T00:03:44.440Z,3.21
2023-02-03T00:06:11.062Z,3.18
2023-02-03T00:08:38.342Z,3.23
2023-02-03T00:11:07.311Z,3.26
2023-02-03T00:13:35.161Z,3.29
2023-02-03T00:16:03.407Z,3.34
2023-02-03T00:18:32.929Z,3.29
2023-02-03T00:21:06.494Z,3.25
2023-02-03T00:23:41.176Z,3.29
2023-02-03T00:26:12.259Z,3.26
2023-02-03T00:28:45.633Z,3.34
2023-02-03T00:31:25.024Z,3.37
2023-02-03T00:33:56.031Z,3.27
2023-02-03T00:36:26.405Z,3.26
2023-02-03T00:38:54.274Z,3.24
2023-02-03T00:41:25.009Z,3.39
2023-02-03T00:43:54.718Z,3.39
2023-02-03T00:46:22.486Z,3.27
2023-02-03T00:48:51.494Z,3.16
2023-02-03T00:51:27.505Z,3.14
2023-02-03T00:53:54.491Z,3.10
2023-02-03T00:56:30.642Z,3.19
2023-02-03T00:59:11.086Z,3.22
2023-02-03T01:01:40.014Z,3.02
2023-02-03T01:04:07.549Z,3.11
2023-02-03T01:06:38.402Z,2.88
2023-02-03T01:09:07.633Z,2.89
2023-02-03T01:11:39.862Z,3.00
2023-02-03T01:14:08.819Z,3.00
2023-02-03T01:16:40.541Z,3.10
2023-02-03T01:19:07.232Z,2.95
2023-02-03T01:21:37.243Z,3.03
2023-02-03T01:24:07.136Z,2.98
2023-02-03T01:26:39.685Z,3.05
2023-02-03T01:29:10.573Z,3.00
2023-02-03T01:31:39.919Z,2.90
2023-02-03T01:34:13.960Z,2.87
2023-02-03T01:36:43.902Z,2.86
2023-02-03T01:39:10.640Z,2.89
2023-02-03T01:41:38.563Z,2.81
2023-02-03T01:44:25.157Z,2.91
2023-02-03T01:46:53.546Z,2.93
2023-02-03T01:49:28.017Z,2.91
2023-02-03T01:51:54.847Z,2.83
2023-02-03T01:54:30.124Z,2.79
2023-02-03T01:56:58.930Z,2.78
2023-02-03T01:59:28.225Z,2.73
2023-02-03T02:01:59.862Z,2.70
2023-02-03T02:04:31.924Z,2.62
2023-02-03T02:07:01.917Z,2.52
2023-02-03T02:09:35.878Z,2.47
2023-02-03T02:12:05.457Z,2.49
2023-02-03T02:14:39.401Z,2.45
2023-02-03T02:17:27.312Z,2.47
2023-02-03T02:20:15.350Z,2.47
2023-02-03T02:23:07.875Z,2.36
2023-02-03T02:25:54.096Z,2.36
2023-02-03T02:28:47.838Z,2.32
2023-02-03T02:31:47.919Z,2.25
2023-02-03T02:34:30.078Z,2.20
2023-02-03T02:37:12.112Z,2.11
2023-02-03T02:39:49.981Z,2.15
2023-02-03T02:42:30.902Z,2.20
2023-02-03T02:45:14.467Z,2.32
2023-02-03T02:47:48.802Z,2.47
2023-02-03T02:50:27.415Z,2.47
2023-02-03T02:53:00.012Z,2.50
2023-02-03T02:55:44.370Z,2.49
2023-02-03T02:58:23.238Z,2.42
2023-02-03T03:00:53.426Z,2.47
2023-02-03T03:03:23.612Z,2.46
2023-02-03T03:06:10.120Z,2.52
2023-02-03T03:09:04.323Z,2.50
2023-02-03T03:11:35.251Z,2.48
2023-02-03T03:14:14.955Z,2.51
2023-02-03T03:16:46.183Z,2.53
2023-02-03T03:19:18.364Z,2.43
2023-02-03T03:21:47.855Z,2.36
2023-02-03T03:24:19.495Z,2.39
2023-02-03T03:26:55.473Z,2.44
2023-02-03T03:29:23.566Z,2.53
2023-02-03T03:31:54.332Z,2.53
2023-02-03T03:34:26.036Z,2.45
2023-02-03T03:37:20.711Z,2.49
2023-02-03T03:39:53.614Z,2.52
2023-02-03T03:42:33.753Z,2.55
2023-02-03T03:45:07.047Z,2.56
2023-02-03T03:47:42.770Z,2.53
2023-02-03T03:50:12.025Z,2.24
2023-02-03T03:52:41.186Z,2.33
2023-02-03T03:55:09.655Z,2.43
2023-02-03T03:57:46.965Z,2.40
2023-02-03T04:00:14.885Z,2.40
2023-02-03T04:02:41.830Z,2.47
2023-02-03T04:05:08.929Z,2.54
2023-02-03T04:07:40.941Z,2.52
2023-02-03T04:10:29.796Z,2.55
2023-02-03T04:12:56.625Z,2.61
2023-02-03T04:15:23.473Z,2.61
2023-02-03T04:17:50.241Z,2.52
2023-02-03T04:20:16.971Z,2.46
2023-02-03T04:22:46.049Z,2.51
2023-02-03T04:25:12.755Z,2.53
2023-02-03T04:27:42.057Z,2.49
2023-02-03T04:30:09.000Z,2.55
2023-02-03T04:32:35.797Z,2.62
2023-02-03T04:35:06.133Z,2.51
2023-02-03T04:37:32.936Z,2.37
2023-02-03T04:40:01.289Z,2.41
2023-02-03T04:42:30.234Z,2.30
2023-02-03T04:44:57.071Z,2.31
2023-02-03T04:47:23.740Z,2.45
2023-02-03T04:49:50.449Z,2.62
2023-02-03T04:52:17.046Z,2.74
2023-02-03T04:54:43.697Z,2.81
2023-02-03T04:57:10.365Z,2.86
2023-02-03T04:59:36.965Z,2.65
2023-02-03T05:02:05.925Z,2.73
2023-02-03T05:04:32.643Z,2.80
2023-02-03T05:06:59.364Z,2.89
2023-02-03T05:09:28.891Z,2.97
2023-02-03T05:11:57.906Z,3.03
2023-02-03T05:14:24.707Z,3.12
2023-02-03T05:16:51.596Z,3.16
2023-02-03T05:19:24.111Z,3.25
2023-02-03T05:21:51.422Z,3.11
2023-02-03T05:24:18.442Z,3.20
2023-02-03T05:26:50.484Z,3.32
2023-02-03T05:29:21.892Z,3.38
2023-02-03T05:31:49.747Z,3.47
2023-02-03T05:34:18.712Z,3.44
2023-02-03T05:36:50.074Z,3.46
2023-02-03T05:39:19.645Z,3.39
2023-02-03T05:41:58.884Z,3.51
2023-02-03T05:44:28.523Z,3.30
2023-02-03T05:46:59.292Z,3.32
2023-02-03T05:49:30.803Z,3.45
2023-02-03T05:51:57.877Z,3.45
2023-02-03T05:54:32.458Z,3.37
2023-02-03T05:56:59.934Z,3.44
2023-02-03T05:59:28.016Z,3.61
2023-02-03T06:01:55.421Z,3.60
2023-02-03T06:04:23.335Z,3.67
2023-02-03T06:06:50.597Z,3.74
2023-02-03T06:09:17.823Z,3.53
2023-02-03T06:11:44.611Z,3.45
2023-02-03T06:14:13.597Z,3.40
2023-02-03T06:16:42.724Z,3.46
2023-02-03T06:19:09.765Z,3.35
2023-02-03T06:21:36.914Z,3.25
2023-02-03T06:24:05.279Z,3.34
2023-02-03T06:26:37.336Z,3.42
2023-02-03T06:29:04.609Z,3.39
2023-02-03T06:31:31.658Z,3.31
2023-02-03T06:33:59.722Z,3.35
2023-02-03T06:36:32.470Z,3.32
2023-02-03T06:39:01.968Z,3.40
2023-02-03T06:41:30.848Z,3.50
2023-02-03T06:43:58.009Z,3.47
2023-02-03T06:46:29.966Z,3.57
2023-02-03T06:48:57.260Z,3.63
2023-02-03T06:51:25.160Z,3.75
2023-02-03T06:53:52.641Z,3.78
2023-02-03T06:56:22.675Z,3.67
2023-02-03T06:58:49.915Z,3.70
2023-02-03T07:01:20.183Z,3.85
2023-02-03T07:03:47.695Z,3.99
2023-02-03T07:06:14.951Z,3.82
2023-02-03T07:08:41.972Z,3.96
2023-02-03T07:11:09.218Z,4.19
2023-02-03T07:13:36.428Z,4.32
2023-02-03T07:16:03.529Z,4.49
2023-02-03T07:18:46.364Z,4.63
2023-02-03T07:21:15.265Z,4.76
2023-02-03T07:23:42.139Z,4.76
2023-02-03T07:26:09.822Z,4.86
2023-02-03T07:28:37.054Z,4.90
2023-02-03T07:31:04.951Z,4.94
2023-02-03T07:33:31.985Z,4.80
2023-02-03T07:35:59.741Z,4.86
2023-02-03T07:38:27.578Z,4.75
2023-02-03T07:40:54.251Z,4.68
2023-02-03T07:43:20.913Z,4.68
2023-02-03T07:45:47.640Z,4.50
2023-02-03T07:48:19.456Z,4.39
2023-02-03T07:50:47.798Z,4.37
2023-02-03T07:53:14.791Z,4.18
2023-02-03T07:55:41.456Z,3.94
2023-02-03T07:58:08.049Z,3.70
2023-02-03T08:00:34.685Z,3.64
2023-02-03T08:03:06.333Z,3.60
2023-02-03T08:05:32.955Z,3.51
2023-02-03T08:07:59.608Z,3.48
2023-02-03T08:10:29.317Z,3.58
2023-02-03T08:12:58.837Z,3.80
2023-02-03T08:15:28.003Z,3.99
2023-02-03T08:17:56.697Z,4.18
2023-02-03T08:20:25.588Z,4.36
2023-02-03T08:22:53.106Z,4.59
2023-02-03T08:25:22.472Z,4.68
2023-02-03T08:27:49.636Z,4.57
2023-02-03T08:30:19.385Z,4.38
2023-02-03T08:32:48.606Z,4.44
2023-02-03T08:35:18.437Z,4.46
2023-02-03T08:37:47.411Z,4.49
2023-02-03T08:40:19.804Z,4.44
2023-02-03T08:42:48.710Z,4.52
2023-02-03T08:45:20.237Z,4.44
2023-02-03T08:47:49.069Z,4.43
2023-02-03T08:50:15.930Z,4.50
2023-02-03T08:52:50.187Z,4.56
2023-02-03T08:55:18.985Z,4.84
2023-02-03T08:57:45.970Z,4.74
2023-02-03T09:00:18.697Z,4.68
2023-02-03T09:02:45.756Z,4.46
2023-02-03T09:05:12.668Z,4.39
2023-02-03T09:07:42.103Z,4.28
2023-02-03T09:10:11.516Z,4.21
2023-02-03T09:12:43.105Z,4.33
2023-02-03T09:15:10.153Z,4.42
2023-02-03T09:17:39.231Z,4.30
2023-02-03T09:20:09.090Z,3.98
2023-02-03T09:22:35.700Z,3.67
2023-02-03T09:25:06.174Z,3.32
2023-02-03T09:27:33.101Z,2.94
2023-02-03T09:30:02.192Z,2.78
2023-02-03T09:32:28.895Z,2.68
2023-02-03T09:34:58.174Z,2.66
2023-02-03T09:37:25.395Z,2.62
2023-02-03T09:39:53.689Z,2.67
2023-02-03T09:49:59.042Z,3.04
2023-02-03T09:52:29.339Z,3.00
2023-02-03T09:55:16.438Z,2.89
2023-02-03T09:57:44.674Z,2.78
2023-02-03T10:00:45.075Z,2.86
2023-02-03T10:03:14.460Z,3.06
2023-02-03T10:05:43.983Z,3.16
2023-02-03T10:08:13.623Z,3.00
2023-02-03T10:11:09.937Z,3.08
2023-02-03T10:13:52.098Z,3.41
2023-02-03T10:16:24.845Z,3.44
2023-02-03T10:18:54.871Z,3.25
2023-02-03T10:21:36.574Z,3.21
2023-02-03T10:24:04.516Z,3.40
2023-02-03T10:26:31.326Z,3.46
2023-02-03T10:28:58.716Z,3.37
2023-02-03T10:31:29.082Z,3.31
2023-02-03T10:34:00.784Z,3.27
2023-02-03T10:36:33.178Z,3.28
2023-02-03T10:39:07.086Z,3.13
2023-02-03T10:41:36.783Z,3.23
2023-02-03T10:44:04.270Z,3.54
2023-02-03T10:46:37.570Z,3.54
2023-02-03T10:49:04.255Z,3.47
2023-02-03T10:51:51.155Z,3.50
2023-02-03T10:54:36.986Z,3.49
2023-02-03T10:57:07.539Z,3.54
2023-02-03T10:59:37.658Z,3.46
2023-02-03T11:02:08.790Z,3.40
2023-02-03T11:04:38.606Z,3.13
2023-02-03T11:07:06.996Z,2.81
2023-02-03T11:09:37.602Z,2.76
2023-02-03T11:12:14.594Z,2.77
2023-02-03T11:14:44.253Z,2.74
2023-02-03T11:17:29.985Z,2.64
2023-02-03T11:20:00.228Z,2.63
2023-02-03T11:22:27.948Z,2.64
2023-02-03T11:24:54.537Z,2.83
2023-02-03T11:27:22.852Z,3.00
2023-02-03T11:29:50.751Z,2.95
2023-02-03T11:32:22.544Z,3.03
2023-02-03T11:35:02.544Z,3.00
2023-02-03T11:37:34.234Z,3.01
2023-02-03T11:40:06.795Z,3.00
2023-02-03T11:42:34.479Z,3.10
2023-02-03T11:45:14.844Z,2.97
2023-02-03T11:47:50.543Z,2.66
2023-02-03T11:50:26.097Z,2.42
2023-02-03T11:52:52.855Z,2.21
2023-02-03T11:55:27.310Z,2.04
2023-02-03T11:58:00.264Z,1.90
2023-02-03T12:00:31.536Z,1.86
2023-02-03T12:03:14.228Z,1.97
2023-02-03T12:06:02.683Z,1.87
2023-02-03T12:08:36.645Z,1.85
2023-02-03T12:11:15.310Z,1.87
2023-02-03T12:13:54.318Z,1.91
2023-02-03T12:16:39.842Z,1.91
2023-02-03T12:19:10.195Z,1.96
2023-02-03T12:21:44.388Z,2.10
2023-02-03T12:24:11.140Z,2.10
2023-02-03T12:26:46.376Z,2.16
2023-02-03T12:29:14.644Z,2.03
2023-02-03T12:32:01.577Z,1.85
2023-02-03T12:34:28.229Z,1.87
2023-02-03T12:37:00.267Z,1.91
2023-02-03T12:39:28.641Z,2.05
2023-02-03T12:42:00.738Z,1.93
2023-02-03T12:44:39.518Z,1.95
2023-02-03T12:47:24.600Z,1.92
2023-02-03T12:49:53.708Z,1.87
2023-02-03T12:52:23.051Z,1.86
2023-02-03T12:54:52.881Z,1.94
2023-02-03T12:57:38.503Z,2.03
2023-02-03T13:00:14.185Z,2.13
2023-02-03T13:03:02.301Z,2.15
2023-02-03T13:05:44.215Z,2.21
2023-02-03T13:08:17.976Z,2.48
2023-02-03T13:10:51.890Z,2.46
2023-02-03T13:13:37.853Z,2.47
2023-02-03T13:16:40.622Z,2.35
2023-02-03T13:19:11.143Z,2.44
2023-02-03T13:21:38.014Z,2.49
2023-02-03T13:24:06.035Z,2.56
2023-02-03T13:26:38.758Z,2.55
2023-02-03T13:29:14.929Z,2.78
2023-02-03T13:32:06.699Z,2.63
2023-02-03T13:34:38.684Z,2.75
2023-02-03T13:37:30.254Z,2.79
2023-02-03T13:40:16.041Z,2.88
2023-02-03T13:42:59.203Z,2.87
2023-02-03T13:45:33.005Z,3.02
2023-02-03T13:48:18.890Z,2.95
2023-02-03T13:50:51.188Z,2.88
2023-02-03T13:53:24.063Z,2.86
2023-02-03T13:55:57.500Z,2.79
2023-02-03T13:58:44.075Z,2.74
2023-02-03T14:01:32.509Z,2.71
2023-02-03T14:04:04.990Z,2.87
2023-02-03T14:06:39.662Z,2.92
2023-02-03T14:09:29.621Z,2.95
2023-02-03T14:12:19.431Z,2.85
2023-02-03T14:14:55.952Z,2.85
2023-02-03T14:17:37.179Z,2.85
2023-02-03T14:20:28.761Z,2.82
2023-02-03T14:22:59.981Z,2.83
2023-02-03T14:25:36.921Z,2.94
2023-02-03T14:28:12.288Z,3.02
2023-02-03T14:31:03.517Z,3.02
2023-02-03T14:33:51.034Z,3.06
2023-02-03T14:36:39.530Z,3.11
2023-02-03T14:39:23.674Z,3.12
2023-02-03T14:42:01.014Z,3.10
2023-02-03T14:44:49.013Z,3.13
2023-02-03T14:47:18.651Z,3.13
2023-02-03T14:50:03.338Z,3.17
2023-02-03T14:52:36.116Z,3.11
2023-02-03T14:55:21.323Z,3.14
2023-02-03T14:57:53.538Z,3.19
2023-02-03T15:00:24.503Z,3.15
2023-02-03T15:03:06.963Z,3.30
2023-02-03T15:05:40.362Z,3.46
2023-02-03T15:08:27.939Z,3.32
2023-02-03T15:10:55.463Z,3.33
2023-02-03T15:17:44.844Z,3.26
2023-02-03T15:20:39.811Z,3.26
2023-02-03T15:23:29.658Z,3.28
2023-02-03T15:26:09.360Z,3.30
2023-02-03T15:28:41.513Z,3.35
2023-02-03T15:31:59.668Z,3.22
2023-02-03T15:37:35.541Z,3.11
2023-02-03T15:40:24.210Z,3.16
2023-02-03T15:43:02.781Z,3.13
2023-02-03T15:45:46.162Z,3.14
2023-02-03T15:48:42.636Z,3.11
2023-02-03T15:51:12.383Z,3.11
2023-02-03T15:53:48.352Z,3.08
2023-02-03T15:56:29.684Z,3.19
2023-02-03T15:58:59.329Z,3.21
2023-02-03T16:01:28.477Z,3.00
2023-02-03T16:04:05.296Z,2.91
2023-02-03T16:06:38.383Z,2.81
2023-02-03T16:09:07.114Z,2.69
2023-02-03T16:11:34.942Z,2.62
2023-02-03T16:14:11.267Z,2.56
2023-02-03T16:17:05.353Z,2.48
2023-02-03T16:19:38.274Z,2.46
2023-02-03T16:22:05.404Z,2.33
2023-02-03T16:24:43.035Z,2.25
2023-02-03T16:27:33.203Z,2.22
2023-02-03T16:30:38.746Z,2.22
2023-02-03T16:33:27.147Z,2.14
2023-02-03T16:36:15.651Z,2.12
2023-02-03T16:39:10.117Z,2.18
2023-02-03T16:41:55.531Z,2.18
2023-02-03T16:44:40.896Z,2.19
2023-02-03T16:47:55.551Z,2.12
2023-02-03T16:50:42.476Z,2.06
2023-02-03T16:53:13.223Z,2.11
2023-02-03T16:55:40.130Z,2.19
2023-02-03T16:58:11.405Z,2.20
2023-02-03T17:00:42.074Z,2.21
2023-02-03T17:03:13.117Z,2.29
2023-02-03T17:05:40.338Z,2.39
2023-02-03T17:08:07.079Z,2.53
2023-02-03T17:10:34.814Z,2.66
2023-02-03T17:13:07.103Z,2.78
2023-02-03T17:15:36.165Z,2.89
2023-02-03T17:18:05.174Z,3.04
2023-02-03T17:20:32.042Z,3.15
2023-02-03T17:23:01.631Z,3.25
2023-02-03T17:25:32.581Z,3.31
2023-02-03T17:27:59.443Z,3.43
2023-02-03T17:30:29.445Z,3.61
2023-02-03T17:32:59.050Z,3.76
2023-02-03T17:35:25.962Z,3.83
2023-02-03T17:37:53.008Z,3.90
2023-02-03T17:54:14.581Z,4.39
2023-02-03T17:56:47.618Z,4.42
2023-02-03T17:59:15.712Z,4.49
2023-02-03T18:01:42.332Z,4.51
2023-02-03T18:04:11.529Z,4.57
2023-02-03T18:06:38.511Z,4.67
2023-02-03T18:09:08.150Z,4.71
2023-02-03T18:11:37.773Z,4.71
2023-02-03T18:14:10.572Z,4.73
2023-02-03T18:16:37.206Z,4.81
2023-02-03T18:19:05.379Z,4.82
2023-02-03T18:21:32.666Z,4.77
2023-02-03T18:24:02.023Z,4.75
2023-02-03T18:26:34.522Z,4.71
2023-02-03T18:29:01.159Z,4.70
2023-02-03T18:31:27.839Z,4.70
2023-02-03T18:33:56.815Z,4.64
2023-02-03T18:36:25.742Z,4.67
2023-02-03T18:38:52.408Z,4.67
2023-02-03T18:41:23.198Z,4.77
2023-02-03T18:43:49.920Z,4.83
2023-02-03T18:46:23.706Z,4.90
2023-02-03T18:48:54.939Z,5.07
2023-02-03T18:51:24.657Z,5.14
2023-02-03T18:53:51.283Z,5.13
2023-02-03T18:56:22.546Z,5.02
2023-02-03T18:58:52.042Z,4.98
2023-02-03T19:01:22.411Z,4.87
2023-02-03T19:03:54.205Z,4.79
2023-02-03T19:06:20.915Z,4.83
2023-02-03T19:08:47.562Z,4.88
2023-02-03T19:11:14.379Z,4.82
2023-02-03T19:13:41.236Z,4.74
2023-02-03T19:16:08.462Z,4.65
2023-02-03T19:18:36.255Z,4.58
2023-02-03T19:21:05.657Z,4.59
2023-02-03T19:23:35.191Z,4.55
2023-02-03T19:26:06.751Z,4.52
2023-02-03T19:28:37.213Z,4.53
2023-02-03T19:31:08.760Z,4.56
2023-02-03T19:33:40.889Z,4.68
2023-02-03T19:36:12.511Z,4.72
2023-02-03T19:38:39.077Z,4.74
2023-02-03T19:41:07.176Z,4.71
2023-02-03T19:43:33.832Z,4.69
2023-02-03T19:46:03.058Z,4.75
2023-02-03T19:48:29.689Z,4.73
2023-02-03T19:50:56.402Z,4.72
2023-02-03T19:53:24.495Z,4.78
2023-02-03T19:55:51.462Z,4.71
2023-02-03T19:58:18.273Z,4.69
2023-02-03T20:00:44.978Z,4.64
2023-02-03T20:03:11.646Z,4.60
2023-02-03T20:05:38.372Z,4.66
2023-02-03T20:08:07.326Z,4.60
2023-02-03T20:10:36.881Z,4.60
2023-02-03T20:13:03.474Z,4.61
2023-02-03T20:15:30.129Z,4.54
2023-02-03T20:17:59.160Z,4.54
2023-02-03T20:20:25.824Z,4.52
2023-02-03T20:22:52.406Z,4.47
2023-02-03T20:25:22.266Z,4.49
2023-02-03T20:27:49.396Z,4.47
2023-02-03T20:30:16.181Z,4.44
2023-02-03T20:32:45.101Z,4.48
2023-02-03T20:35:12.702Z,4.44
2023-02-03T20:37:39.392Z,4.41
2023-02-03T20:40:15.722Z,4.40
2023-02-03T20:42:42.669Z,4.39
2023-02-03T20:45:13.437Z,4.41
2023-02-03T20:47:42.435Z,4.31
2023-02-03T20:50:11.441Z,4.25
2023-02-03T20:52:43.521Z,4.13
2023-02-03T20:55:18.364Z,4.12
2023-02-03T20:57:45.408Z,4.16
2023-02-03T21:00:15.675Z,4.27
2023-02-03T21:03:01.103Z,4.34
2023-02-03T21:05:28.473Z,4.47
2023-02-03T21:07:57.524Z,4.58
2023-02-03T21:10:27.085Z,4.58
2023-02-03T21:12:53.840Z,4.57
2023-02-03T21:15:27.458Z,4.58
2023-02-03T21:17:56.690Z,4.62
2023-02-03T21:20:28.978Z,4.59
2023-02-03T21:22:56.078Z,4.61
2023-02-03T21:25:29.332Z,4.62
2023-02-03T21:27:58.204Z,4.62
2023-02-03T21:30:28.024Z,4.63
2023-02-03T21:32:54.927Z,4.63
2023-02-03T21:35:24.144Z,4.66
2023-02-03T21:37:57.191Z,4.70
2023-02-03T21:40:28.502Z,4.70
2023-02-03T21:42:55.449Z,4.71
2023-02-03T21:45:24.203Z,4.73
2023-02-03T21:47:53.328Z,4.75
2023-02-03T21:50:28.541Z,4.69
2023-02-03T21:52:55.781Z,4.69
2023-02-03T21:55:22.443Z,4.72
2023-02-03T21:57:51.538Z,4.72
2023-02-03T22:00:37.138Z,4.74
2023-02-03T22:03:08.265Z,4.75
2023-02-03T22:05:37.721Z,4.80
2023-02-03T22:08:13.251Z,4.85
2023-02-03T22:10:40.306Z,4.82
2023-02-03T22:13:09.344Z,4.83
2023-02-03T22:15:38.376Z,4.78
2023-02-03T22:18:04.982Z,4.76
2023-02-03T22:20:33.937Z,4.74
2023-02-03T22:23:02.774Z,4.76
2023-02-03T22:25:32.046Z,4.72
2023-02-03T22:27:58.703Z,4.74
2023-02-03T22:30:27.918Z,4.80
2023-02-03T22:32:58.145Z,4.82
2023-02-03T22:35:25.307Z,4.80
2023-02-03T22:37:54.019Z,4.80
2023-02-03T22:40:21.525Z,4.76
2023-02-03T22:42:53.266Z,4.84
2023-02-03T22:45:20.169Z,4.99
2023-02-03T22:47:50.337Z,4.98
2023-02-03T22:50:34.496Z,4.97
2023-02-03T22:53:04.373Z,4.95
2023-02-03T22:55:31.205Z,4.95
2023-02-03T22:58:00.196Z,4.94
2023-02-03T23:00:29.664Z,4.93
2023-02-03T23:02:56.548Z,4.97
2023-02-03T23:05:28.635Z,4.97
2023-02-03T23:07:57.573Z,5.04
2023-02-03T23:10:25.644Z,5.02
2023-02-03T23:12:52.365Z,5.05
2023-02-03T23:15:19.090Z,5.05
2023-02-03T23:17:48.269Z,5.08
2023-02-03T23:20:15.486Z,5.07
2023-02-03T23:22:42.317Z,5.06
2023-02-03T23:25:11.480Z,5.09
2023-02-03T23:27:42.991Z,5.17
2023-02-03T23:30:12.476Z,5.19
2023-02-03T23:32:41.240Z,5.15
2023-02-03T23:35:43.393Z,5.15
2023-02-03T23:38:09.961Z,5.27
2023-02-03T23:40:36.500Z,5.26
2023-02-03T23:43:03.215Z,5.24
2023-02-03T23:45:32.817Z,5.33
2023-02-03T23:48:01.948Z,5.41
2023-02-03T23:50:28.938Z,5.54
2023-02-03T23:52:55.767Z,5.59
2023-02-03T23:55:24.893Z,5.58
2023-02-03T23:57:53.959Z,5.58
